Time;durP1;ratioP1;P1;durP2;ratioP2;P2;SDS_P1;SDS_P2;PMS_P1;PMS_P2;Temp;Humidity;BMP_temperature;BMP_pressure;BME280_temperature;BME280_humidity;BME280_pressure;Samples;Min_cycle;Max_cycle;Signal;HPM_P1;HPM_P2
2022/06/03 00:01:40;;;;;;;3.85;3.10;;;17.30;63.00;;;;;;5057266;28;20029;-60
2022/06/03 00:04:12;;;;;;;5.65;3.90;;;17.30;63.30;;;;;;5056975;28;20051;-60
2022/06/03 00:07:01;;;;;;;7.20;3.80;;;17.30;63.40;;;;;;5057353;28;20033;-64
2022/06/03 00:09:44;;;;;;;7.30;3.90;;;17.20;63.60;;;;;;5056878;28;20048;-60
2022/06/03 00:12:23;;;;;;;5.95;3.85;;;17.20;63.00;;;;;;5057158;28;20059;-60
2022/06/03 00:15:14;;;;;;;5.70;3.83;;;17.20;63.20;;;;;;5056726;28;20025;-59
2022/06/03 00:18:17;;;;;;;5.65;3.75;;;17.20;64.40;;;;;;5057095;28;20029;-59
2022/06/03 00:21:07;;;;;;;5.20;3.45;;;17.20;63.00;;;;;;5056491;28;20064;-60
2022/06/03 00:23:35;;;;;;;5.57;3.63;;;17.20;64.00;;;;;;5057067;28;20029;-60
2022/06/03 00:26:39;;;;;;;4.88;3.33;;;17.20;64.10;;;;;;5056915;28;20033;-61
2022/06/03 00:29:04;;;;;;;5.72;3.60;;;17.20;64.10;;;;;;5057389;28;20029;-61
2022/06/03 00:32:00;;;;;;;6.10;3.50;;;17.20;63.80;;;;;;5056772;28;20032;-60
2022/06/03 00:34:29;;;;;;;5.45;3.90;;;17.10;64.10;;;;;;5057067;28;20040;-60
2022/06/03 00:37:33;;;;;;;4.72;3.50;;;17.10;64.10;;;;;;5056701;28;20029;-60
2022/06/03 00:40:27;;;;;;;8.70;3.60;;;17.10;63.60;;;;;;5057125;28;20397;-59
2022/06/03 00:43:14;;;;;;;5.70;4.13;;;17.10;64.30;;;;;;5056839;28;20025;-59
2022/06/03 00:45:46;;;;;;;5.65;3.58;;;17.10;64.30;;;;;;5055165;28;20025;-60
2022/06/03 00:48:23;;;;;;;4.38;3.65;;;17.10;64.10;;;;;;5056726;28;20078;-59
2022/06/03 00:51:08;;;;;;;5.53;3.30;;;17.00;63.90;;;;;;5056881;28;20032;-59
2022/06/03 00:53:59;;;;;;;7.38;4.20;;;17.00;64.20;;;;;;5056765;28;20059;-60
2022/06/03 00:56:52;;;;;;;6.15;3.40;;;17.00;63.50;;;;;;5056661;28;20052;-60
2022/06/03 00:59:17;;;;;;;6.53;3.97;;;16.90;63.90;;;;;;5056491;28;20032;-60
2022/06/03 01:02:03;;;;;;;5.95;3.78;;;16.90;65.60;;;;;;5056817;28;20021;-60
2022/06/03 01:04:56;;;;;;;5.50;3.72;;;16.90;64.20;;;;;;5055992;28;20739;-60
2022/06/03 01:07:40;;;;;;;4.78;3.67;;;16.90;64.70;;;;;;5056483;28;20021;-59
2022/06/03 01:10:21;;;;;;;5.55;4.20;;;16.80;64.40;;;;;;5041499;28;20033;-60
2022/06/03 01:13:17;;;;;;;5.70;3.95;;;16.90;64.80;;;;;;5059963;28;20028;-60
2022/06/03 01:16:01;;;;;;;9.35;4.30;;;16.90;64.50;;;;;;5060189;28;20029;-59
2022/06/03 01:18:58;;;;;;;7.53;4.10;;;17.00;64.10;;;;;;5060296;28;20016;-60
2022/06/03 01:21:57;;;;;;;5.30;3.90;;;17.00;64.20;;;;;;5060087;28;20025;-59
2022/06/03 01:24:44;;;;;;;6.07;4.07;;;17.00;64.50;;;;;;5060126;28;20024;-60
2022/06/03 01:27:17;;;;;;;7.63;4.40;;;17.10;65.30;;;;;;5059802;28;20082;-60
2022/06/03 01:30:26;;;;;;;4.45;3.45;;;17.10;65.00;;;;;;5059822;28;20452;-60
2022/06/03 01:33:15;;;;;;;5.45;3.70;;;17.10;65.20;;;;;;5057851;28;20145;-60
2022/06/03 01:36:02;;;;;;;5.65;3.83;;;17.10;64.60;;;;;;5059832;28;20029;-61
2022/06/03 01:39:00;;;;;;;7.40;4.60;;;17.10;64.70;;;;;;5059592;28;20028;-60
2022/06/03 01:42:09;;;;;;;6.70;4.10;;;17.10;64.20;;;;;;5059845;28;20408;-60
2022/06/03 01:44:43;;;;;;;5.72;4.05;;;17.10;65.60;;;;;;5059560;28;20512;-60
2022/06/03 01:47:24;;;;;;;;;;;17.00;65.40;;;;;;5060194;28;20032;-59
2022/06/03 01:50:11;;;;;;;6.68;4.10;;;17.00;64.10;;;;;;5059625;28;19936;-60
2022/06/03 01:52:55;;;;;;;6.53;3.95;;;17.00;64.40;;;;;;5059386;28;20025;-60
2022/06/03 01:55:38;;;;;;;;;;;16.90;64.80;;;;;;5059895;28;20033;-60
2022/06/03 01:58:27;;;;;;;5.43;4.10;;;16.90;64.80;;;;;;5059049;28;19920;-60
2022/06/03 02:01:19;;;;;;;6.22;3.90;;;16.90;65.00;;;;;;5058723;28;20041;-65
2022/06/03 02:04:15;;;;;;;6.95;4.20;;;16.90;65.10;;;;;;5058060;28;20112;-60
2022/06/03 02:06:49;;;;;;;6.65;4.40;;;16.80;64.80;;;;;;5059348;28;20393;-60
2022/06/03 02:09:15;;;;;;;5.82;3.85;;;16.80;64.90;;;;;;5059255;28;20049;-60
2022/06/03 02:12:12;;;;;;;7.35;3.83;;;16.80;65.30;;;;;;5059079;28;20051;-60
2022/06/03 02:15:13;;;;;;;5.13;3.83;;;16.80;64.50;;;;;;5059141;28;20028;-60
2022/06/03 02:18:24;;;;;;;6.05;4.03;;;16.80;64.80;;;;;;5059341;28;20029;-60
2022/06/03 02:20:59;;;;;;;6.28;3.83;;;16.70;65.10;;;;;;5058335;28;20029;-60
2022/06/03 02:23:52;;;;;;;6.43;3.92;;;16.70;65.50;;;;;;5058978;28;20076;-60
2022/06/03 02:26:55;;;;;;;5.63;4.10;;;16.70;66.20;;;;;;5059209;28;20074;-60
2022/06/03 02:32:59;;;;;;;5.65;4.00;;;16.60;66.00;;;;;;5058836;28;20035;-64
2022/06/03 02:35:47;;;;;;;5.30;3.83;;;16.60;65.30;;;;;;5058552;28;20517;-59
2022/06/03 02:38:33;;;;;;;6.95;4.35;;;16.60;65.90;;;;;;5058732;28;20021;-60
2022/06/03 02:41:29;;;;;;;5.88;4.13;;;16.50;65.60;;;;;;5057300;28;20063;-61
2022/06/03 02:44:15;;;;;;;6.82;4.07;;;16.50;66.80;;;;;;5058735;28;20031;-60
2022/06/03 02:46:49;;;;;;;6.15;4.00;;;16.50;66.10;;;;;;5058479;28;20554;-60
2022/06/03 02:49:18;;;;;;;5.78;3.85;;;16.50;66.10;;;;;;5058570;28;20106;-60
2022/06/03 02:52:27;;;;;;;7.30;4.05;;;16.50;66.10;;;;;;5058241;28;20040;-63
2022/06/03 02:55:27;;;;;;;7.35;4.00;;;16.50;65.70;;;;;;5058334;28;20401;-60
2022/06/03 02:58:34;;;;;;;8.98;4.50;;;16.40;66.60;;;;;;5057891;28;20060;-60
2022/06/03 03:01:24;;;;;;;5.97;4.15;;;16.40;66.90;;;;;;5058266;28;20017;-60
2022/06/03 03:04:36;;;;;;;5.65;3.88;;;16.30;66.40;;;;;;5058263;28;20028;-60
2022/06/03 03:07:23;;;;;;;7.13;4.10;;;16.30;65.60;;;;;;5057798;28;20028;-60
2022/06/03 03:10:07;;;;;;;6.15;4.00;;;16.40;67.20;;;;;;5058450;28;20021;-60
2022/06/03 03:13:01;;;;;;;6.30;4.10;;;16.30;65.60;;;;;;5057702;28;20100;-60
2022/06/03 03:15:33;;;;;;;6.22;3.97;;;16.30;66.30;;;;;;5057774;28;20276;-60
2022/06/03 03:18:12;;;;;;;6.95;4.20;;;16.30;66.30;;;;;;5057559;28;20032;-60
2022/06/03 03:21:12;;;;;;;5.57;3.90;;;16.30;66.30;;;;;;5057689;28;20021;-59
2022/06/03 03:23:56;;;;;;;6.95;4.25;;;16.20;66.30;;;;;;5057910;28;20489;-60
2022/06/03 03:26:25;;;;;;;;;;;16.20;66.60;;;;;;5058198;28;20033;-60
2022/06/03 03:29:09;;;;;;;9.10;4.47;;;16.20;66.60;;;;;;5057822;28;19911;-60
2022/06/03 03:31:53;;;;;;;;;;;16.20;67.40;;;;;;5057731;28;20025;-60
2022/06/03 03:34:38;;;;;;;6.38;4.40;;;16.20;66.20;;;;;;5057703;28;20257;-59
2022/06/03 03:37:31;;;;;;;7.93;4.05;;;16.20;66.50;;;;;;5057467;28;20080;-60
2022/06/03 03:40:09;;;;;;;4.90;4.07;;;16.20;66.30;;;;;;5057509;28;20040;-60
2022/06/03 03:43:02;;;;;;;6.57;4.10;;;16.20;67.20;;;;;;5057380;28;20028;-60
2022/06/03 03:45:49;;;;;;;5.63;3.80;;;16.20;67.20;;;;;;5057313;28;20052;-60
2022/06/03 03:48:51;;;;;;;7.13;4.38;;;16.10;67.10;;;;;;5057531;28;20024;-60
2022/06/03 03:51:33;;;;;;;6.05;4.20;;;16.20;66.50;;;;;;5057433;28;20021;-61
2022/06/03 03:54:17;;;;;;;7.00;4.18;;;16.20;66.40;;;;;;5057556;28;20553;-60
2022/06/03 03:57:04;;;;;;;5.60;4.32;;;16.20;67.30;;;;;;5057158;28;20053;-60
2022/06/03 04:00:00;;;;;;;6.78;4.47;;;16.20;66.60;;;;;;5057709;28;20031;-60
2022/06/03 04:02:41;;;;;;;6.28;4.35;;;16.20;67.40;;;;;;5056985;28;20025;-60
2022/06/03 04:05:28;;;;;;;6.32;4.45;;;16.20;66.30;;;;;;5057080;28;20025;-63
2022/06/03 04:08:33;;;;;;;5.50;4.22;;;16.20;66.40;;;;;;5056969;28;20033;-60
2022/06/03 04:11:25;;;;;;;7.55;4.22;;;16.20;66.50;;;;;;5056878;28;20029;-60
2022/06/03 04:14:17;;;;;;;6.72;4.18;;;16.10;67.10;;;;;;5057342;28;20163;-60
2022/06/03 04:17:09;;;;;;;6.70;4.50;;;16.20;67.30;;;;;;5057479;28;20025;-60
2022/06/03 04:20:11;;;;;;;7.55;4.50;;;16.20;66.80;;;;;;5057304;28;20472;-62
2022/06/03 04:22:53;;;;;;;5.38;3.80;;;16.10;66.50;;;;;;5056298;28;20562;-59
2022/06/03 04:25:19;;;;;;;5.47;4.03;;;16.10;67.60;;;;;;5057251;28;20025;-59
2022/06/03 04:28:22;;;;;;;8.98;4.57;;;16.10;67.40;;;;;;5057139;28;20108;-60
2022/06/03 04:31:25;;;;;;;6.70;4.25;;;16.10;66.80;;;;;;5056825;28;20056;-60
2022/06/03 04:34:13;;;;;;;6.25;4.35;;;16.00;67.20;;;;;;5056988;28;20558;-59
2022/06/03 04:36:57;;;;;;;5.60;4.03;;;16.00;67.00;;;;;;5056697;28;20037;-59
2022/06/03 04:39:42;;;;;;;;;;;16.00;66.70;;;;;;5057432;28;20524;-60
2022/06/03 04:42:26;;;;;;;6.47;4.20;;;16.00;67.30;;;;;;5057274;28;20001;-60
2022/06/03 04:44:52;;;;;;;;;;;16.00;67.50;;;;;;5060072;28;20104;-60
2022/06/03 04:47:29;;;;;;;6.60;4.25;;;16.00;66.70;;;;;;5060692;28;19983;-61
2022/06/03 04:50:28;;;;;;;6.38;4.53;;;16.00;66.90;;;;;;5060789;28;20029;-60
2022/06/03 04:53:17;;;;;;;9.35;4.18;;;16.00;66.80;;;;;;5060684;28;20175;-59
2022/06/03 04:56:05;;;;;;;7.93;4.30;;;15.90;67.80;;;;;;5060458;28;20021;-65
2022/06/03 04:59:00;;;;;;;6.03;4.30;;;15.90;66.70;;;;;;5060677;28;20040;-59
2022/06/03 05:01:50;;;;;;;5.00;3.75;;;15.90;67.60;;;;;;5060124;28;20023;-60
2022/06/03 05:04:47;;;;;;;5.43;4.03;;;15.90;67.00;;;;;;5060173;28;20029;-59
2022/06/03 05:07:50;;;;;;;6.20;4.35;;;15.90;66.80;;;;;;5060458;28;20025;-60
2022/06/03 05:11:26;;;;;;;6.50;3.70;;;15.90;68.00;;;;;;5060083;28;20098;-65
2022/06/03 05:13:52;;;;;;;7.15;4.13;;;15.90;68.10;;;;;;5056889;28;20064;-59
2022/06/03 05:16:57;;;;;;;6.68;4.47;;;15.90;67.80;;;;;;5057774;28;20463;-59
2022/06/03 05:19:37;;;;;;;6.03;4.05;;;15.90;67.50;;;;;;5059444;28;20037;-59
2022/06/03 05:22:32;;;;;;;6.00;4.28;;;15.90;68.00;;;;;;5060063;28;20024;-60
2022/06/03 05:25:07;;;;;;;6.35;4.70;;;15.90;67.40;;;;;;5059798;28;20038;-60
2022/06/03 05:27:48;;;;;;;7.32;4.85;;;15.90;67.40;;;;;;5058982;28;20028;-59
2022/06/03 05:30:32;;;;;;;6.55;4.20;;;15.90;67.80;;;;;;5060133;28;20021;-60
2022/06/03 05:33:17;;;;;;;;;;;15.90;68.30;;;;;;5060261;28;20037;-60
2022/06/03 05:36:13;;;;;;;8.13;4.38;;;15.90;68.40;;;;;;5059550;28;19913;-61
2022/06/03 05:39:05;;;;;;;7.43;4.22;;;15.90;67.40;;;;;;5059519;28;20080;-61
2022/06/03 05:44:48;;;;;;;6.68;4.20;;;16.00;67.80;;;;;;5059498;28;20103;-69
2022/06/03 05:47:23;;;;;;;6.85;4.32;;;16.00;67.80;;;;;;5059814;28;20028;-61
2022/06/03 05:50:04;;;;;;;6.32;4.03;;;16.00;67.80;;;;;;5059413;28;20017;-61
2022/06/03 05:52:47;;;;;;;7.35;4.20;;;16.00;68.10;;;;;;5059251;28;20029;-61
2022/06/03 05:55:54;;;;;;;6.90;3.83;;;16.10;67.70;;;;;;5059274;28;20032;-61
2022/06/03 05:58:49;;;;;;;9.77;4.60;;;16.20;68.10;;;;;;5058454;28;20041;-61
2022/06/03 06:01:47;;;;;;;7.40;4.45;;;16.30;68.10;;;;;;5059195;28;20112;-61
2022/06/03 06:04:52;;;;;;;5.50;4.05;;;16.40;67.90;;;;;;5058818;28;20029;-61
2022/06/03 06:07:30;;;;;;;6.47;3.95;;;16.50;67.90;;;;;;5059009;28;20399;-61
2022/06/03 06:10:08;;;;;;;7.03;4.38;;;16.50;67.70;;;;;;5058260;28;20022;-60
2022/06/03 06:13:01;;;;;;;5.05;4.03;;;16.60;67.60;;;;;;5058424;28;20029;-61
2022/06/03 06:15:32;;;;;;;8.77;4.63;;;16.60;67.60;;;;;;5058783;28;20053;-61
2022/06/03 06:18:25;;;;;;;6.38;4.03;;;16.70;68.00;;;;;;5058677;28;20045;-61
2022/06/03 06:21:13;;;;;;;6.40;4.50;;;16.80;67.80;;;;;;5058632;28;20021;-60
2022/06/03 06:23:46;;;;;;;5.85;4.78;;;16.90;68.00;;;;;;5057366;28;20423;-61
2022/06/03 06:26:12;;;;;;;5.78;4.07;;;17.00;67.60;;;;;;5058899;28;20025;-61
2022/06/03 06:29:00;;;;;;;7.78;4.38;;;17.10;67.60;;;;;;5058537;28;20051;-61
2022/06/03 06:31:57;;;;;;;10.20;4.80;;;17.20;67.90;;;;;;5057151;28;20052;-61
2022/06/03 06:35:02;;;;;;;6.22;4.25;;;17.30;67.40;;;;;;5058651;28;20395;-61
2022/06/03 06:37:48;;;;;;;6.57;4.10;;;17.40;67.40;;;;;;5058812;28;20159;-61
2022/06/03 06:40:14;;;;;;;8.80;4.65;;;17.50;67.00;;;;;;5058376;28;20491;-61
2022/06/03 06:42:46;;;;;;;7.32;4.50;;;17.60;66.70;;;;;;5058849;28;20029;-61
2022/06/03 06:45:53;;;;;;;6.65;4.32;;;17.70;67.10;;;;;;5058513;28;20032;-61
2022/06/03 06:49:02;;;;;;;6.18;4.20;;;17.90;66.60;;;;;;5057462;28;20037;-61
2022/06/03 06:52:09;;;;;;;7.05;4.32;;;18.00;66.60;;;;;;5058385;28;20542;-60
2022/06/03 06:54:51;;;;;;;5.07;3.95;;;18.10;66.00;;;;;;5056814;28;20037;-61
2022/06/03 06:57:45;;;;;;;6.22;3.90;;;18.30;65.90;;;;;;5057580;28;20045;-61
2022/06/03 07:00:17;;;;;;;6.35;3.85;;;18.30;66.10;;;;;;5058243;28;20096;-61
2022/06/03 07:02:45;;;;;;;6.28;3.95;;;18.40;65.90;;;;;;5058048;28;20027;-61
2022/06/03 07:05:14;;;;;;;7.82;4.53;;;18.40;65.90;;;;;;5058366;28;20029;-61
2022/06/03 07:07:55;;;;;;;6.82;4.30;;;18.50;65.60;;;;;;5055677;28;20028;-61
2022/06/03 07:10:50;;;;;;;7.43;3.80;;;18.50;65.70;;;;;;5057895;28;20025;-62
2022/06/03 07:13:31;;;;;;;;;;;18.60;65.70;;;;;;5057664;28;20051;-61
2022/06/03 07:22:12;;;;;;;6.32;3.90;;;18.90;65.00;;;;;;5057407;28;20040;-62
2022/06/03 07:24:48;;;;;;;5.50;3.53;;;18.90;64.70;;;;;;5039917;28;20025;-61
2022/06/03 07:27:40;;;;;;;7.95;4.43;;;19.10;65.40;;;;;;5037496;28;20493;-61
2022/06/03 07:30:26;;;;;;;5.43;3.70;;;19.10;64.90;;;;;;5037067;28;20492;-67
2022/06/03 07:33:00;;;;;;;7.82;4.10;;;19.20;65.00;;;;;;5037370;28;20035;-61
2022/06/03 07:35:43;;;;;;;6.03;3.80;;;19.20;64.40;;;;;;5036769;28;20037;-61
2022/06/03 07:38:28;;;;;;;5.80;3.78;;;19.20;63.80;;;;;;5037200;28;20026;-62
2022/06/03 07:40:59;;;;;;;4.38;3.50;;;19.20;63.50;;;;;;5037620;28;20040;-63
2022/06/03 07:44:01;;;;;;;5.93;3.33;;;19.20;64.00;;;;;;5037126;28;20021;-61
2022/06/03 07:46:52;;;;;;;5.82;3.63;;;19.30;63.90;;;;;;5036785;28;20514;-61
2022/06/03 07:49:21;;;;;;;5.28;3.40;;;19.40;63.30;;;;;;5037497;28;20034;-61
2022/06/03 07:51:52;;;;;;;6.50;3.63;;;19.40;63.10;;;;;;5037401;28;20547;-61
2022/06/03 07:54:28;;;;;;;5.75;3.63;;;19.50;62.80;;;;;;5037512;28;20029;-62
2022/06/03 07:57:17;;;;;;;5.68;3.47;;;19.60;62.90;;;;;;5036830;28;20132;-61
2022/06/03 07:59:43;;;;;;;4.18;3.25;;;19.60;63.60;;;;;;5036993;28;20052;-61
2022/06/03 08:02:13;;;;;;;8.18;3.63;;;19.80;63.20;;;;;;5037081;28;20018;-61
2022/06/03 08:04:40;;;;;;;8.07;3.85;;;19.90;63.30;;;;;;5036951;28;20089;-61
2022/06/03 08:13:11;;;;;;;6.32;3.40;;;20.40;62.40;;;;;;5037309;28;20484;-62
2022/06/03 08:15:51;;;;;;;8.30;4.03;;;20.60;62.60;;;;;;5036802;28;20040;-61
2022/06/03 08:18:18;;;;;;;7.13;3.60;;;20.70;62.80;;;;;;5039054;28;20041;-61
2022/06/03 08:21:21;;;;;;;6.32;3.72;;;20.70;62.20;;;;;;5041093;28;20057;-61
2022/06/03 08:23:47;;;;;;;5.43;3.30;;;20.70;62.70;;;;;;5038935;28;20029;-61
2022/06/03 08:26:20;;;;;;;4.45;3.20;;;20.80;62.50;;;;;;5040587;28;20066;-61
2022/06/03 08:28:55;;;;;;;6.10;3.70;;;20.90;62.30;;;;;;5040937;28;20519;-62
2022/06/03 08:31:23;;;;;;;5.00;3.55;;;20.80;62.00;;;;;;5041100;28;20036;-62
2022/06/03 08:33:58;;;;;;;6.13;3.67;;;20.90;61.40;;;;;;5040987;28;20359;-62
2022/06/03 08:36:29;;;;;;;7.40;3.67;;;20.90;61.70;;;;;;5040754;28;20079;-61
2022/06/03 08:39:08;;;;;;;6.03;4.00;;;20.90;61.60;;;;;;5040149;28;20036;-62
2022/06/03 08:41:55;;;;;;;5.28;3.78;;;20.90;61.90;;;;;;5041245;28;20461;-61
2022/06/03 08:44:33;;;;;;;5.10;3.55;;;21.00;60.60;;;;;;5040678;28;20084;-62
2022/06/03 08:47:14;;;;;;;6.13;3.20;;;21.00;61.90;;;;;;5040816;28;20109;-61
2022/06/03 08:50:05;;;;;;;6.18;3.35;;;21.10;61.00;;;;;;5040591;28;20048;-62
2022/06/03 08:52:45;;;;;;;5.93;3.80;;;21.20;61.10;;;;;;5040276;28;20029;-61
2022/06/03 08:55:51;;;;;;;5.53;3.70;;;21.30;60.50;;;;;;5040622;28;20034;-64
2022/06/03 08:58:35;;;;;;;5.07;3.38;;;21.30;61.60;;;;;;5040731;28;20083;-61
2022/06/03 09:01:19;;;;;;;;;;;21.40;60.90;;;;;;5040838;28;20017;-62
2022/06/03 09:04:08;;;;;;;4.13;3.40;;;21.50;61.80;;;;;;5040520;28;19955;-62
2022/06/03 09:06:40;;;;;;;6.03;3.58;;;21.70;60.90;;;;;;5040512;28;20033;-62
2022/06/03 09:09:19;;;;;;;4.63;3.30;;;21.80;60.30;;;;;;5040283;28;20029;-62
2022/06/03 09:12:12;;;;;;;4.53;3.40;;;21.90;60.80;;;;;;5040270;28;20465;-62
2022/06/03 09:14:43;;;;;;;5.50;3.50;;;22.00;60.60;;;;;;5039985;28;20025;-62
2022/06/03 09:17:35;;;;;;;4.82;3.42;;;22.20;59.30;;;;;;5040132;28;20027;-62
2022/06/03 09:20:12;;;;;;;6.85;3.53;;;22.40;61.60;;;;;;5040260;28;20515;-62
2022/06/03 09:22:38;;;;;;;6.68;3.65;;;22.50;60.00;;;;;;5039981;28;20037;-61
2022/06/03 09:25:06;;;;;;;7.63;3.92;;;22.70;59.50;;;;;;5040018;28;20028;-62
2022/06/03 09:27:34;;;;;;;6.32;3.72;;;22.90;58.30;;;;;;5039949;28;20025;-62
2022/06/03 09:30:03;;;;;;;7.43;3.47;;;23.10;60.50;;;;;;5039478;28;20083;-61
2022/06/03 09:32:37;;;;;;;5.40;3.55;;;23.30;58.40;;;;;;5039139;28;20052;-61
2022/06/03 09:35:08;;;;;;;5.45;3.80;;;23.30;58.90;;;;;;5038760;28;20071;-62
2022/06/03 09:37:38;;;;;;;6.78;3.67;;;23.40;58.50;;;;;;5039775;28;20456;-62
2022/06/03 09:40:08;;;;;;;7.28;3.50;;;23.50;57.60;;;;;;5038874;28;20024;-62
2022/06/03 09:42:36;;;;;;;4.63;3.30;;;23.60;56.30;;;;;;5038351;28;20477;-62
2022/06/03 09:45:05;;;;;;;11.77;3.78;;;23.60;52.80;;;;;;5039404;28;20044;-61
2022/06/03 09:47:32;;;;;;;5.90;3.78;;;23.60;57.60;;;;;;5039448;28;20390;-62
2022/06/03 09:49:58;;;;;;;5.85;3.83;;;23.60;57.40;;;;;;5039202;28;20045;-62
2022/06/03 09:52:27;;;;;;;5.07;3.60;;;23.60;54.30;;;;;;5039151;28;20053;-62
2022/06/03 09:54:54;;;;;;;5.97;3.88;;;23.50;55.00;;;;;;5039093;28;20021;-61
2022/06/03 09:57:29;;;;;;;5.75;3.65;;;23.50;54.80;;;;;;5037863;28;20104;-61
2022/06/03 10:00:13;;;;;;;8.77;4.55;;;23.40;53.50;;;;;;5037267;28;20026;-62
2022/06/03 10:02:40;;;;;;;14.43;4.55;;;23.30;54.90;;;;;;5038256;28;20481;-62
2022/06/03 10:05:06;;;;;;;8.00;4.50;;;23.10;54.20;;;;;;5038612;28;20028;-61
2022/06/03 10:07:34;;;;;;;8.48;4.45;;;22.90;55.00;;;;;;5038368;28;20025;-62
2022/06/03 10:12:49;;;;;;;7.70;4.30;;;22.80;54.70;;;;;;5038756;28;20040;-61
2022/06/03 10:15:39;;;;;;;7.25;4.25;;;22.90;56.20;;;;;;5038627;28;20033;-68
2022/06/03 10:18:28;;;;;;;7.78;4.20;;;23.30;57.10;;;;;;5039176;28;20021;-61
2022/06/03 10:21:20;;;;;;;6.28;3.90;;;23.90;52.40;;;;;;5038928;28;20022;-61
2022/06/03 10:23:52;;;;;;;6.70;3.83;;;24.70;52.90;;;;;;5038731;28;20029;-61
2022/06/03 10:26:22;;;;;;;6.68;3.85;;;25.20;50.80;;;;;;5038490;28;20032;-61
2022/06/03 10:28:50;;;;;;;6.82;3.88;;;25.30;51.90;;;;;;5038820;28;20029;-61
2022/06/03 10:31:26;;;;;;;6.68;3.67;;;25.40;50.80;;;;;;5039049;28;20104;-62
2022/06/03 10:34:00;;;;;;;7.43;4.32;;;25.60;48.60;;;;;;5038762;28;20057;-62
2022/06/03 10:36:37;;;;;;;7.60;4.43;;;26.00;48.40;;;;;;5038592;28;20029;-62
2022/06/03 10:39:05;;;;;;;7.25;3.60;;;26.60;49.80;;;;;;5038957;28;20030;-62
2022/06/03 10:41:40;;;;;;;6.72;3.60;;;27.10;49.00;;;;;;5038550;28;20063;-62
2022/06/03 10:44:15;;;;;;;5.57;3.72;;;27.80;48.90;;;;;;5038818;28;20029;-62
2022/06/03 10:46:57;;;;;;;11.07;4.30;;;28.40;49.70;;;;;;5038544;28;20208;-62
2022/06/03 10:49:26;;;;;;;8.27;3.92;;;28.50;46.20;;;;;;5038250;28;20361;-62
2022/06/03 11:02:59;;;;;;;7.65;5.53;;;28.20;43.20;;;;;;5037619;28;20031;-61
2022/06/03 11:05:27;;;;;;;10.90;5.35;;;28.00;45.10;;;;;;5038234;28;20025;-61
2022/06/03 11:08:06;;;;;;;7.63;5.75;;;27.90;45.20;;;;;;5037876;28;20034;-62
2022/06/03 11:10:44;;;;;;;8.77;5.22;;;28.00;45.90;;;;;;5038025;28;20402;-63
2022/06/03 11:13:11;;;;;;;9.35;5.30;;;27.90;46.60;;;;;;5037815;28;20044;-62
2022/06/03 11:15:45;;;;;;;7.10;4.90;;;27.80;46.10;;;;;;5037898;28;20025;-61
2022/06/03 11:18:22;;;;;;;10.45;5.53;;;28.00;47.60;;;;;;5038211;28;20021;-62
2022/06/03 11:20:52;;;;;;;9.90;5.07;;;28.40;47.60;;;;;;5037834;28;20034;-61
2022/06/03 11:23:19;;;;;;;8.73;5.57;;;28.80;47.20;;;;;;5038093;28;20026;-62
2022/06/03 11:25:54;;;;;;;9.88;5.00;;;29.10;45.50;;;;;;5037990;28;20017;-62
2022/06/03 11:28:30;;;;;;;8.98;5.38;;;29.50;48.80;;;;;;5037874;28;20082;-62
2022/06/03 11:31:11;;;;;;;8.27;5.18;;;29.70;43.90;;;;;;5037775;28;20014;-62
2022/06/03 11:33:52;;;;;;;9.45;5.35;;;29.60;45.40;;;;;;5037699;28;20479;-62
2022/06/03 11:36:24;;;;;;;8.63;5.20;;;29.30;42.70;;;;;;5037265;28;20026;-69
2022/06/03 11:39:02;;;;;;;9.38;5.35;;;29.30;43.90;;;;;;5038003;28;20032;-61
2022/06/03 11:41:50;;;;;;;9.88;5.82;;;29.60;40.30;;;;;;5037788;28;20022;-62
2022/06/03 11:44:19;;;;;;;7.10;4.82;;;29.70;43.90;;;;;;5036414;28;20037;-62
2022/06/03 11:47:03;;;;;;;10.60;5.15;;;29.90;41.40;;;;;;5037463;28;20088;-62
2022/06/03 11:49:30;;;;;;;8.60;5.40;;;29.40;39.60;;;;;;5037720;28;20025;-62
2022/06/03 11:51:56;;;;;;;7.15;5.22;;;29.00;40.00;;;;;;5037357;28;20029;-65
2022/06/03 11:54:25;;;;;;;6.75;4.78;;;28.30;39.10;;;;;;5037479;28;20028;-61
2022/06/03 11:56:51;;;;;;;8.55;4.88;;;28.00;41.60;;;;;;5037349;28;20048;-61
2022/06/03 11:59:23;;;;;;;8.50;5.00;;;28.10;43.20;;;;;;5037544;28;20025;-62
2022/06/03 12:01:49;;;;;;;7.82;5.40;;;28.10;42.40;;;;;;5037543;28;20022;-61
2022/06/03 12:04:40;;;;;;;10.32;5.00;;;27.80;41.00;;;;;;5037434;28;20030;-62
2022/06/03 12:07:24;;;;;;;8.95;4.82;;;27.70;42.70;;;;;;5037204;28;20528;-62
2022/06/03 12:10:28;;;;;;;6.93;4.88;;;27.80;42.40;;;;;;5037482;28;20048;-61
2022/06/03 12:13:15;;;;;;;7.60;5.05;;;27.50;39.70;;;;;;5037206;28;20022;-64
2022/06/03 12:15:44;;;;;;;8.90;5.80;;;27.20;42.20;;;;;;5036371;28;20076;-61
2022/06/03 12:18:10;;;;;;;8.23;5.30;;;27.40;42.50;;;;;;5036829;28;20048;-61
2022/06/03 12:20:47;;;;;;;7.78;5.18;;;27.40;40.20;;;;;;5036678;28;20081;-62
2022/06/03 12:23:12;;;;;;;7.55;4.97;;;27.50;40.70;;;;;;5037103;28;20040;-62
2022/06/03 12:25:46;;;;;;;6.32;4.60;;;27.70;40.50;;;;;;5037002;28;20486;-61
2022/06/03 12:28:42;;;;;;;8.70;4.90;;;27.70;40.40;;;;;;5037235;28;20018;-61
2022/06/03 12:31:20;;;;;;;7.32;4.70;;;28.00;40.80;;;;;;5036242;28;20109;-62
2022/06/03 12:34:03;;;;;;;5.88;4.15;;;28.00;39.70;;;;;;5037022;28;20021;-61
2022/06/03 12:36:47;;;;;;;9.25;4.40;;;28.00;39.70;;;;;;5037247;28;20174;-62
2022/06/03 12:39:22;;;;;;;7.20;5.28;;;28.40;40.70;;;;;;5036734;28;20116;-61
2022/06/03 12:41:48;;;;;;;8.60;5.47;;;28.20;39.00;;;;;;5036801;28;20029;-62
2022/06/03 12:44:40;;;;;;;11.25;5.90;;;27.90;41.30;;;;;;5036805;28;20025;-62
2022/06/03 12:47:36;;;;;;;7.85;5.80;;;28.00;42.10;;;;;;5035488;28;20394;-61
2022/06/03 12:50:04;;;;;;;8.07;6.28;;;27.60;41.80;;;;;;5035909;28;20041;-61
2022/06/03 12:52:30;;;;;;;11.90;6.32;;;27.70;43.60;;;;;;5036943;28;20095;-62
2022/06/03 12:55:01;;;;;;;8.60;6.35;;;27.40;43.30;;;;;;5036535;28;20029;-62
2022/06/03 12:57:48;;;;;;;7.35;5.50;;;26.60;43.10;;;;;;5036486;28;20103;-62
2022/06/03 13:00:20;;;;;;;9.15;6.15;;;26.20;45.30;;;;;;5036748;28;20488;-62
2022/06/03 13:02:53;;;;;;;7.88;6.55;;;26.20;45.70;;;;;;5036655;28;20025;-63
2022/06/03 13:05:37;;;;;;;9.57;6.25;;;25.90;45.10;;;;;;5038566;28;20421;-62
2022/06/03 13:08:08;;;;;;;8.60;6.53;;;25.50;46.10;;;;;;5040637;28;20032;-62
2022/06/03 13:11:06;;;;;;;8.68;5.90;;;25.20;45.70;;;;;;5040599;28;20048;-62
2022/06/03 13:13:32;;;;;;;8.25;6.05;;;24.80;47.50;;;;;;5039857;28;20038;-62
2022/06/03 13:16:35;;;;;;;9.25;6.90;;;24.80;46.70;;;;;;5040198;28;20034;-62
2022/06/03 13:19:17;;;;;;;10.07;5.90;;;24.30;48.00;;;;;;5039253;28;20502;-61
2022/06/03 13:21:58;;;;;;;7.43;6.10;;;24.20;49.20;;;;;;5040125;28;20017;-62
2022/06/03 13:24:29;;;;;;;9.68;6.40;;;24.20;48.30;;;;;;5040273;28;20049;-62
2022/06/03 13:26:58;;;;;;;8.65;6.50;;;24.10;47.60;;;;;;5039889;28;20025;-62
2022/06/03 13:29:49;;;;;;;11.80;6.05;;;24.10;47.80;;;;;;5040139;28;20481;-62
2022/06/03 13:32:36;;;;;;;10.50;6.10;;;24.20;46.80;;;;;;5039843;28;20057;-62
2022/06/03 13:35:07;;;;;;;9.07;5.53;;;24.20;47.90;;;;;;5039951;28;20033;-62
2022/06/03 13:37:49;;;;;;;8.35;5.75;;;24.30;47.60;;;;;;5039862;28;20030;-62
2022/06/03 13:40:24;;;;;;;8.48;6.05;;;24.30;47.60;;;;;;5040158;28;20144;-62
2022/06/03 13:43:21;;;;;;;10.43;6.47;;;24.30;47.30;;;;;;5039860;28;20056;-62
2022/06/03 13:46:00;;;;;;;7.95;6.10;;;24.00;48.00;;;;;;5039299;28;20041;-61
2022/06/03 13:48:49;;;;;;;8.88;6.53;;;23.80;48.80;;;;;;5039576;28;20489;-62
2022/06/03 13:51:38;;;;;;;9.02;6.40;;;23.70;49.40;;;;;;5039693;28;20030;-62
2022/06/03 13:54:17;;;;;;;9.57;7.13;;;23.60;50.00;;;;;;5039474;28;20036;-62
2022/06/03 13:57:19;;;;;;;9.93;6.95;;;23.40;53.20;;;;;;5038921;28;20049;-62
2022/06/03 13:59:46;;;;;;;10.40;6.60;;;23.50;52.90;;;;;;5038698;28;20030;-61
2022/06/03 14:02:20;;;;;;;12.65;6.45;;;23.60;52.20;;;;;;5039449;28;20025;-61
2022/06/03 14:05:06;;;;;;;11.13;7.90;;;23.70;51.10;;;;;;5039380;28;20124;-61
2022/06/03 14:07:41;;;;;;;10.57;8.77;;;24.00;52.60;;;;;;5039455;28;20030;-61
2022/06/03 14:10:22;;;;;;;9.70;8.02;;;24.20;51.50;;;;;;5039334;28;20049;-62
2022/06/03 14:12:50;;;;;;;12.70;8.68;;;24.20;52.10;;;;;;5039426;28;20033;-61
2022/06/03 14:15:55;;;;;;;10.68;8.77;;;24.30;51.00;;;;;;5038859;28;20444;-61
2022/06/03 14:19:01;;;;;;;10.90;9.27;;;24.30;51.90;;;;;;5038234;28;20037;-61
2022/06/03 14:21:39;;;;;;;11.43;8.00;;;24.60;52.50;;;;;;5037036;28;20029;-61
2022/06/03 14:24:21;;;;;;;11.30;9.52;;;24.80;51.20;;;;;;5038657;28;20037;-61
2022/06/03 14:26:59;;;;;;;11.50;9.50;;;25.00;49.20;;;;;;5039006;28;20059;-61
2022/06/03 14:29:34;;;;;;;11.48;8.05;;;25.00;49.30;;;;;;5038548;28;20025;-61
2022/06/03 14:32:13;;;;;;;10.93;9.80;;;25.20;49.90;;;;;;5037276;28;20398;-61
2022/06/03 14:34:48;;;;;;;12.00;9.45;;;25.20;49.70;;;;;;5038914;28;20028;-61
2022/06/03 14:37:24;;;;;;;12.45;9.00;;;25.00;50.10;;;;;;5038298;28;20030;-61
2022/06/03 14:39:52;;;;;;;11.23;9.05;;;25.00;50.80;;;;;;5039005;28;20457;-61